createdAt,value
2019-05-22T00:01:18.092Z,4.70
2019-05-22T00:04:00.396Z,4.50
2019-05-22T00:06:37.802Z,4.87
2019-05-22T00:09:10.720Z,5.43
2019-05-22T00:11:43.851Z,5.20
2019-05-22T00:14:15.614Z,4.40
2019-05-22T00:16:47.023Z,4.43
2019-05-22T00:19:20.137Z,4.30
2019-05-22T00:21:52.429Z,4.43
2019-05-22T00:24:25.583Z,3.87
2019-05-22T00:26:58.483Z,3.60
2019-05-22T00:29:30.875Z,3.53
2019-05-22T00:32:03.972Z,4.37
2019-05-22T00:34:36.561Z,3.53
2019-05-22T00:37:08.301Z,3.63
2019-05-22T00:39:39.029Z,3.90
2019-05-22T00:42:11.551Z,3.70
2019-05-22T00:44:43.683Z,3.90
2019-05-22T00:47:14.914Z,3.40
2019-05-22T00:49:50.160Z,3.40
2019-05-22T00:52:25.504Z,3.50
2019-05-22T00:55:10.576Z,3.30
2019-05-22T00:57:43.604Z,3.63
2019-05-22T01:00:20.470Z,3.40
2019-05-22T01:02:52.388Z,3.70
2019-05-22T01:05:25.011Z,5.23
2019-05-22T01:07:57.036Z,3.77
2019-05-22T01:10:29.820Z,4.17
2019-05-22T01:13:00.928Z,4.93
2019-05-22T01:15:32.963Z,4.93
2019-05-22T01:18:07.635Z,4.20
2019-05-22T01:20:41.766Z,4.80
2019-05-22T01:23:14.342Z,5.17
2019-05-22T01:25:46.106Z,5.97
2019-05-22T01:28:17.702Z,4.90
2019-05-22T01:30:50.899Z,5.83
2019-05-22T01:33:23.685Z,5.97
2019-05-22T01:36:00.070Z,5.40
2019-05-22T01:38:32.746Z,6.03
2019-05-22T01:41:10.951Z,6.07
2019-05-22T01:43:42.268Z,6.27
2019-05-22T01:46:14.495Z,6.60
2019-05-22T01:48:46.217Z,6.27
2019-05-22T01:51:18.324Z,5.93
2019-05-22T01:53:52.015Z,5.97
2019-05-22T01:56:25.015Z,5.40
2019-05-22T01:58:56.049Z,6.00
2019-05-22T02:01:28.017Z,5.63
2019-05-22T02:04:00.166Z,4.90
2019-05-22T02:06:31.087Z,5.47
2019-05-22T02:09:24.186Z,5.40
2019-05-22T02:11:58.082Z,5.67
2019-05-22T02:14:30.763Z,5.60
2019-05-22T02:17:03.348Z,4.47
2019-05-22T02:19:34.482Z,5.20
2019-05-22T02:22:07.163Z,5.13
2019-05-22T02:24:39.323Z,4.80
2019-05-22T02:27:10.372Z,4.90
2019-05-22T02:29:41.859Z,5.33
2019-05-22T02:32:14.070Z,5.40
2019-05-22T02:34:45.032Z,5.63
2019-05-22T02:37:17.849Z,5.60
2019-05-22T02:39:50.708Z,5.27
2019-05-22T02:42:28.548Z,5.20
2019-05-22T02:45:00.060Z,6.00
2019-05-22T02:47:30.783Z,5.33
2019-05-22T02:50:02.144Z,5.33
2019-05-22T02:52:33.813Z,5.60
2019-05-22T02:55:07.073Z,4.97
2019-05-22T02:57:38.546Z,5.17
2019-05-22T03:00:11.407Z,5.03
2019-05-22T03:02:54.447Z,4.73
2019-05-22T03:05:25.894Z,4.70
2019-05-22T03:07:58.489Z,4.67
2019-05-22T03:10:31.289Z,5.40
2019-05-22T03:13:02.716Z,5.00
2019-05-22T03:15:33.946Z,4.90
2019-05-22T03:18:08.292Z,5.40
2019-05-22T03:20:40.602Z,5.40
2019-05-22T03:23:35.024Z,5.50
2019-05-22T03:26:09.308Z,4.90
2019-05-22T03:28:41.211Z,5.63
2019-05-22T03:31:13.523Z,5.13
2019-05-22T03:33:45.541Z,5.07
2019-05-22T03:36:18.524Z,5.03
2019-05-22T03:38:49.458Z,5.60
2019-05-22T03:41:23.200Z,5.67
2019-05-22T03:43:55.948Z,5.47
2019-05-22T03:46:36.291Z,5.73
2019-05-22T03:49:27.987Z,6.10
2019-05-22T03:51:47.811Z,6.13
2019-05-22T03:54:19.876Z,5.90
2019-05-22T03:56:52.347Z,6.00
2019-05-22T03:59:23.906Z,6.27
2019-05-22T04:01:56.418Z,6.70
2019-05-22T04:04:36.933Z,6.20
2019-05-22T04:07:12.450Z,5.70
2019-05-22T04:09:46.192Z,5.90
2019-05-22T04:12:19.799Z,6.90
2019-05-22T04:14:51.338Z,7.53
2019-05-22T04:17:22.192Z,6.77
2019-05-22T04:19:54.610Z,6.97
2019-05-22T04:22:25.792Z,7.10
2019-05-22T04:24:56.840Z,6.47
2019-05-22T04:27:28.078Z,7.00
2019-05-22T04:29:59.944Z,7.17
2019-05-22T04:32:32.215Z,7.30
2019-05-22T04:35:10.307Z,7.40
2019-05-22T04:37:43.146Z,8.07
2019-05-22T04:40:25.922Z,8.17
2019-05-22T04:42:58.972Z,10.10
2019-05-22T04:45:30.382Z,12.97
2019-05-22T04:48:03.015Z,15.30
2019-05-22T04:50:35.441Z,17.27
2019-05-22T04:53:06.450Z,18.10
2019-05-22T04:55:37.300Z,17.43
2019-05-22T04:58:13.250Z,16.27
2019-05-22T05:00:44.618Z,16.83
2019-05-22T05:03:17.277Z,19.00
2019-05-22T05:05:54.758Z,20.77
2019-05-22T05:08:25.496Z,21.77
2019-05-22T05:10:58.388Z,18.23
2019-05-22T05:13:29.316Z,18.50
2019-05-22T05:16:00.364Z,19.73
2019-05-22T05:18:32.015Z,45.60
2019-05-22T05:21:03.238Z,19.20
2019-05-22T05:23:34.504Z,17.77
2019-05-22T05:26:05.241Z,18.93
2019-05-22T05:28:36.494Z,17.93
2019-05-22T05:31:07.393Z,18.13
2019-05-22T05:33:52.711Z,19.50
2019-05-22T05:36:23.839Z,20.53
2019-05-22T05:38:55.904Z,18.77
2019-05-22T05:41:27.802Z,20.63
2019-05-22T05:44:00.612Z,18.60
2019-05-22T05:46:32.064Z,25.17
2019-05-22T05:49:05.536Z,19.03
2019-05-22T05:51:38.586Z,19.20
2019-05-22T05:54:13.009Z,19.20
2019-05-22T05:56:46.095Z,20.90
2019-05-22T05:59:18.939Z,21.23
2019-05-22T06:01:53.519Z,21.97
2019-05-22T06:04:35.118Z,23.67
2019-05-22T06:07:21.185Z,21.27
2019-05-22T06:09:54.714Z,23.13
2019-05-22T06:12:26.024Z,22.40
2019-05-22T06:14:57.053Z,28.80
2019-05-22T06:17:58.521Z,23.23
2019-05-22T06:20:30.959Z,24.70
2019-05-22T06:23:28.551Z,24.20
2019-05-22T06:26:02.868Z,24.47
2019-05-22T06:28:38.713Z,24.00
2019-05-22T06:31:18.990Z,24.63
2019-05-22T06:33:49.732Z,26.70
2019-05-22T06:36:22.960Z,22.80
2019-05-22T06:39:00.926Z,16.93
2019-05-22T06:41:38.683Z,16.73
2019-05-22T06:44:21.838Z,15.67
2019-05-22T06:46:54.000Z,16.03
2019-05-22T06:49:36.775Z,16.53
2019-05-22T06:52:09.577Z,19.70
2019-05-22T06:54:40.635Z,19.60
2019-05-22T06:57:13.819Z,22.87
2019-05-22T06:59:45.655Z,21.33
2019-05-22T07:02:17.968Z,21.23
2019-05-22T07:04:50.459Z,22.20
2019-05-22T07:07:22.138Z,21.87
2019-05-22T07:09:55.874Z,21.40
2019-05-22T07:12:28.459Z,20.63
2019-05-22T07:15:04.485Z,19.63
2019-05-22T07:17:36.300Z,19.77
2019-05-22T07:20:08.128Z,19.07
2019-05-22T07:22:39.876Z,18.37
2019-05-22T07:25:12.081Z,42.40
2019-05-22T07:33:53.044Z,23.53
2019-05-22T07:36:25.791Z,25.47
2019-05-22T07:38:56.629Z,23.70
2019-05-22T07:41:27.621Z,22.80
2019-05-22T07:43:59.140Z,22.30
2019-05-22T07:46:31.285Z,19.60
2019-05-22T07:49:03.121Z,19.30
2019-05-22T07:51:50.606Z,17.80
2019-05-22T07:54:08.967Z,16.17
2019-05-22T07:56:41.813Z,17.57
2019-05-22T07:59:13.543Z,16.90
2019-05-22T08:01:44.174Z,18.17
2019-05-22T08:04:15.186Z,19.30
2019-05-22T08:06:46.426Z,20.37
2019-05-22T08:09:21.649Z,18.53
2019-05-22T08:11:54.333Z,17.50
2019-05-22T08:14:26.577Z,18.57
2019-05-22T08:16:57.178Z,18.83
2019-05-22T08:19:27.899Z,17.57
2019-05-22T08:22:07.107Z,19.87
2019-05-22T08:24:35.786Z,16.47
2019-05-22T08:27:08.014Z,14.93
2019-05-22T08:29:39.234Z,15.00
2019-05-22T08:32:09.864Z,16.23
2019-05-22T08:34:43.254Z,14.67
2019-05-22T08:37:18.801Z,16.43
2019-05-22T08:39:49.819Z,16.00
2019-05-22T08:42:21.825Z,18.37
2019-05-22T08:44:52.507Z,25.83
2019-05-22T08:47:23.654Z,28.57
2019-05-22T08:49:55.326Z,28.20
2019-05-22T08:52:26.664Z,25.17
2019-05-22T08:54:58.325Z,16.23
2019-05-22T08:57:30.708Z,13.00
2019-05-22T09:00:05.918Z,11.17
2019-05-22T09:02:36.824Z,10.80
2019-05-22T09:05:08.588Z,11.27
2019-05-22T09:07:40.093Z,9.53
2019-05-22T09:10:11.433Z,8.20
2019-05-22T09:12:42.243Z,9.40
2019-05-22T09:15:13.303Z,9.97
2019-05-22T09:17:45.108Z,8.20
2019-05-22T09:20:16.116Z,6.80
2019-05-22T09:22:47.331Z,6.87
2019-05-22T09:25:18.170Z,6.70
2019-05-22T09:27:49.121Z,7.13
2019-05-22T09:30:20.648Z,7.50
2019-05-22T09:32:52.897Z,6.77
2019-05-22T09:35:23.659Z,6.90
2019-05-22T09:37:54.383Z,6.30
2019-05-22T09:40:25.598Z,8.30
2019-05-22T09:42:57.016Z,11.40
2019-05-22T09:45:27.653Z,11.33
2019-05-22T09:47:59.551Z,13.67
2019-05-22T09:50:30.307Z,15.00
2019-05-22T09:53:00.916Z,16.63
2019-05-22T09:55:31.988Z,17.93
2019-05-22T09:58:02.789Z,19.53
2019-05-22T10:00:33.697Z,20.07
2019-05-22T10:03:05.806Z,18.17
2019-05-22T10:05:36.844Z,13.00
2019-05-22T10:08:07.746Z,11.00
2019-05-22T10:10:38.766Z,9.13
2019-05-22T10:13:09.909Z,10.13
2019-05-22T10:15:40.550Z,10.60
2019-05-22T10:18:11.196Z,12.17
2019-05-22T10:20:41.883Z,18.23
2019-05-22T10:23:15.864Z,22.37
2019-05-22T10:25:45.245Z,24.20
2019-05-22T10:28:16.443Z,23.70
2019-05-22T10:30:47.567Z,20.77
2019-05-22T10:33:18.516Z,18.87
2019-05-22T10:35:49.129Z,12.57
2019-05-22T10:38:20.601Z,15.07
2019-05-22T10:40:52.829Z,10.57
2019-05-22T10:43:23.797Z,9.77
2019-05-22T10:45:54.636Z,11.20
2019-05-22T10:48:25.644Z,10.70
2019-05-22T10:50:56.325Z,12.23
2019-05-22T10:53:33.523Z,10.63
2019-05-22T10:56:01.203Z,9.57
2019-05-22T10:58:32.494Z,7.73
2019-05-22T11:01:04.197Z,7.33
2019-05-22T11:03:35.465Z,6.70
2019-05-22T11:06:08.549Z,10.00
2019-05-22T11:08:40.746Z,8.60
2019-05-22T11:11:11.491Z,7.90
2019-05-22T11:14:00.053Z,6.53
2019-05-22T11:16:17.968Z,6.50
2019-05-22T11:18:49.316Z,6.60
2019-05-22T11:21:20.298Z,6.60
2019-05-22T11:23:53.037Z,6.43
2019-05-22T11:26:25.564Z,6.00
2019-05-22T11:28:58.389Z,5.50
2019-05-22T11:31:29.376Z,8.30
2019-05-22T11:34:02.069Z,4.73
2019-05-22T11:36:33.496Z,4.60
2019-05-22T11:39:05.600Z,5.00
2019-05-22T11:41:36.311Z,16.60
2019-05-22T11:44:08.936Z,4.50
2019-05-22T11:46:40.953Z,4.97
2019-05-22T11:49:12.425Z,4.53
2019-05-22T11:51:45.908Z,5.07
2019-05-22T11:54:18.025Z,6.00
2019-05-22T11:56:51.293Z,6.37
2019-05-22T11:59:24.323Z,8.30
2019-05-22T12:01:55.235Z,6.50
2019-05-22T12:04:26.363Z,6.70
2019-05-22T12:06:57.153Z,5.40
2019-05-22T12:09:28.729Z,5.70
2019-05-22T12:12:01.140Z,5.60
2019-05-22T12:14:32.340Z,6.03
2019-05-22T12:17:03.560Z,7.17
2019-05-22T12:19:34.589Z,6.80
2019-05-22T12:22:09.568Z,5.83
2019-05-22T12:24:40.855Z,3.10
2019-05-22T12:27:12.490Z,4.60
2019-05-22T12:29:43.625Z,3.97
2019-05-22T12:32:14.518Z,4.50
2019-05-22T12:34:45.231Z,5.07
2019-05-22T12:37:16.586Z,5.10
2019-05-22T12:39:47.485Z,6.33
2019-05-22T12:42:18.867Z,6.80
2019-05-22T12:44:49.814Z,6.90
2019-05-22T12:47:24.281Z,7.03
2019-05-22T12:49:55.781Z,6.50
2019-05-22T12:52:27.854Z,6.13
2019-05-22T12:54:59.158Z,6.13
2019-05-22T12:57:29.842Z,6.53
2019-05-22T13:00:02.823Z,7.03
2019-05-22T13:02:36.755Z,7.63
2019-05-22T13:05:13.822Z,6.10
2019-05-22T13:07:41.718Z,7.20
2019-05-22T13:10:12.841Z,7.03
2019-05-22T13:12:43.569Z,8.80
2019-05-22T13:15:15.971Z,8.27
2019-05-22T13:17:47.686Z,8.30
2019-05-22T13:20:41.843Z,8.87
2019-05-22T13:23:03.640Z,6.57
2019-05-22T13:25:37.112Z,7.00
2019-05-22T13:28:08.939Z,6.40
2019-05-22T13:30:42.880Z,5.77
2019-05-22T13:33:18.133Z,5.03
2019-05-22T13:35:48.781Z,5.73
2019-05-22T13:38:19.585Z,6.33
2019-05-22T13:40:52.303Z,6.40
2019-05-22T13:43:24.097Z,6.30
2019-05-22T13:45:55.097Z,6.40
2019-05-22T13:48:27.388Z,6.30
2019-05-22T13:50:59.400Z,5.47
2019-05-22T13:53:32.223Z,4.87
2019-05-22T13:56:04.711Z,4.00
2019-05-22T13:58:35.942Z,4.67
2019-05-22T14:01:13.800Z,4.90
2019-05-22T14:03:48.259Z,5.07
2019-05-22T14:06:20.453Z,4.43
2019-05-22T14:08:53.951Z,5.20
2019-05-22T14:11:28.428Z,5.00
2019-05-22T14:14:01.478Z,5.17
2019-05-22T14:16:47.554Z,5.80
2019-05-22T14:19:08.195Z,5.60
2019-05-22T14:21:40.242Z,6.67
2019-05-22T14:24:10.885Z,9.50
2019-05-22T14:26:41.579Z,8.40
2019-05-22T14:29:13.693Z,8.53
2019-05-22T14:31:44.432Z,8.63
2019-05-22T14:34:15.557Z,9.47
2019-05-22T14:36:46.570Z,9.37
2019-05-22T14:39:17.758Z,11.37
2019-05-22T14:41:48.611Z,12.20
2019-05-22T14:44:20.291Z,14.77
2019-05-22T14:46:50.986Z,13.73
2019-05-22T14:49:23.345Z,11.00
2019-05-22T14:51:56.324Z,9.43
2019-05-22T14:54:28.563Z,8.40
2019-05-22T14:57:01.047Z,9.60
2019-05-22T14:59:32.451Z,10.10
2019-05-22T15:02:04.263Z,10.60
2019-05-22T15:04:35.378Z,11.03
2019-05-22T15:07:10.374Z,10.90
2019-05-22T15:09:44.290Z,7.63
2019-05-22T15:12:15.064Z,6.27
2019-05-22T15:14:45.854Z,5.97
2019-05-22T15:17:31.940Z,5.13
2019-05-22T15:19:50.917Z,5.20
2019-05-22T15:22:21.808Z,5.00
2019-05-22T15:24:55.984Z,5.23
2019-05-22T15:27:28.168Z,5.30
2019-05-22T15:30:00.357Z,5.30
2019-05-22T15:32:31.815Z,5.53
2019-05-22T15:35:06.299Z,6.07
2019-05-22T15:37:37.726Z,5.40
2019-05-22T15:40:12.824Z,5.70
2019-05-22T15:42:45.513Z,6.37
2019-05-22T15:45:24.712Z,5.97
2019-05-22T15:48:01.887Z,6.17
2019-05-22T15:50:35.349Z,6.10
2019-05-22T15:53:13.377Z,6.30
2019-05-22T15:55:42.880Z,6.63
2019-05-22T15:58:15.455Z,6.60
2019-05-22T16:00:50.661Z,7.43
2019-05-22T16:03:24.817Z,7.47
2019-05-22T16:05:57.106Z,7.80
2019-05-22T16:08:30.264Z,7.03
2019-05-22T16:11:09.314Z,8.57
2019-05-22T16:13:41.529Z,8.03
2019-05-22T16:16:13.241Z,10.00
2019-05-22T16:18:48.612Z,8.67
2019-05-22T16:21:22.832Z,8.23
2019-05-22T16:23:55.024Z,8.03
2019-05-22T16:26:27.118Z,8.73
2019-05-22T16:29:01.482Z,8.67
2019-05-22T16:31:32.926Z,8.07
2019-05-22T16:34:11.548Z,8.70
2019-05-22T16:36:40.230Z,9.17
2019-05-22T16:39:12.270Z,7.90
2019-05-22T16:41:43.227Z,8.50
2019-05-22T16:44:15.113Z,10.03
2019-05-22T16:46:47.116Z,8.83
2019-05-22T16:49:17.999Z,9.53
2019-05-22T16:51:48.914Z,8.90
2019-05-22T16:54:21.120Z,9.53
2019-05-22T16:56:52.988Z,9.40
2019-05-22T16:59:23.738Z,8.90
2019-05-22T17:01:59.208Z,9.10
2019-05-22T17:04:28.036Z,10.00
2019-05-22T17:07:00.395Z,10.17
2019-05-22T17:09:32.624Z,10.03
2019-05-22T17:12:05.199Z,11.37
2019-05-22T17:14:37.239Z,10.60
2019-05-22T17:17:09.952Z,11.53
2019-05-22T17:19:41.297Z,11.27
2019-05-22T17:22:14.248Z,11.50
2019-05-22T17:24:45.816Z,12.03
2019-05-22T17:27:17.451Z,12.40
2019-05-22T17:29:51.007Z,12.77
2019-05-22T17:32:23.912Z,14.07
2019-05-22T17:34:55.025Z,14.17
2019-05-22T17:37:26.865Z,13.77
2019-05-22T17:39:58.878Z,15.33
2019-05-22T17:42:32.016Z,16.27
2019-05-22T17:45:05.017Z,16.43
2019-05-22T17:47:36.263Z,16.27
2019-05-22T17:50:25.426Z,16.37
2019-05-22T17:52:45.352Z,16.80
2019-05-22T17:55:17.478Z,14.73
2019-05-22T17:57:48.822Z,14.37
2019-05-22T18:00:25.402Z,13.67
2019-05-22T18:02:56.974Z,13.80
2019-05-22T18:05:29.194Z,13.27
2019-05-22T18:08:01.082Z,12.03
2019-05-22T18:10:39.854Z,11.83
2019-05-22T18:13:09.206Z,11.93
2019-05-22T18:15:40.452Z,11.47
2019-05-22T18:18:12.937Z,12.70
2019-05-22T18:20:44.605Z,12.60
2019-05-22T18:23:15.408Z,12.87
2019-05-22T18:25:51.684Z,12.87
2019-05-22T18:28:25.220Z,13.03
2019-05-22T18:30:56.952Z,12.93
2019-05-22T18:33:28.086Z,13.70
2019-05-22T18:35:59.321Z,14.03
2019-05-22T18:38:30.477Z,14.53
2019-05-22T18:41:01.711Z,15.23
2019-05-22T18:43:35.879Z,15.20
2019-05-22T18:46:06.870Z,15.73
2019-05-22T18:48:38.147Z,17.43
2019-05-22T18:51:09.854Z,17.23
2019-05-22T18:53:40.823Z,18.50
2019-05-22T18:56:12.063Z,18.33
2019-05-22T18:58:43.804Z,22.43
2019-05-22T19:01:16.534Z,18.87
2019-05-22T19:03:47.519Z,18.83
2019-05-22T19:06:29.762Z,17.87
2019-05-22T19:08:52.511Z,17.43
2019-05-22T19:11:23.725Z,17.90
2019-05-22T19:13:54.668Z,17.90
2019-05-22T19:16:26.217Z,18.60
2019-05-22T19:19:00.537Z,16.93
2019-05-22T19:21:31.334Z,18.23
2019-05-22T19:24:03.440Z,17.37
2019-05-22T19:26:34.076Z,17.77
2019-05-22T19:29:05.534Z,17.17
2019-05-22T19:31:36.350Z,19.13
2019-05-22T19:34:09.280Z,19.50
2019-05-22T19:36:45.847Z,20.00
2019-05-22T19:39:18.963Z,18.93
2019-05-22T19:42:02.117Z,19.83
2019-05-22T19:44:22.995Z,19.93
2019-05-22T19:46:53.902Z,19.23
2019-05-22T19:49:25.216Z,18.73
2019-05-22T19:51:58.438Z,18.27
2019-05-22T19:54:29.498Z,17.17
2019-05-22T19:57:00.600Z,65.73
2019-05-22T19:59:31.736Z,18.50
2019-05-22T20:02:03.233Z,19.87
2019-05-22T20:04:39.084Z,16.13
2019-05-22T20:07:18.704Z,17.40
2019-05-22T20:09:49.888Z,14.70
2019-05-22T20:12:24.923Z,13.47
2019-05-22T20:14:56.441Z,11.27
2019-05-22T20:17:30.040Z,11.60
2019-05-22T20:20:02.011Z,11.90
2019-05-22T20:22:34.186Z,12.80
2019-05-22T20:25:09.375Z,12.47
2019-05-22T20:27:41.490Z,12.87
2019-05-22T20:30:15.912Z,12.50
2019-05-22T20:32:46.565Z,13.10
2019-05-22T20:35:19.276Z,13.67
2019-05-22T20:37:52.126Z,13.73
2019-05-22T20:40:23.612Z,15.70
2019-05-22T20:42:54.712Z,18.07
2019-05-22T20:45:25.758Z,17.60
2019-05-22T20:48:07.922Z,16.47
2019-05-22T20:50:40.769Z,14.83
2019-05-22T20:53:13.610Z,14.37
2019-05-22T20:55:45.551Z,13.80
2019-05-22T20:58:17.927Z,11.97
2019-05-22T21:00:51.570Z,11.20
2019-05-22T21:03:23.716Z,10.37
2019-05-22T21:05:54.766Z,10.87
2019-05-22T21:08:29.472Z,10.93
2019-05-22T21:11:01.654Z,9.40
2019-05-22T21:13:34.011Z,7.83
2019-05-22T21:16:05.524Z,7.53
2019-05-22T21:18:39.587Z,6.53
2019-05-22T21:21:10.279Z,7.10
2019-05-22T21:23:43.432Z,7.37
2019-05-22T21:26:15.618Z,7.53
2019-05-22T21:28:48.152Z,7.37
2019-05-22T21:31:21.124Z,7.50
2019-05-22T21:33:52.077Z,7.50
2019-05-22T21:36:23.961Z,7.57
2019-05-22T21:38:55.704Z,7.50
2019-05-22T21:41:26.295Z,7.47
2019-05-22T21:43:58.937Z,7.50
2019-05-22T21:46:29.759Z,8.00
2019-05-22T21:49:01.712Z,8.50
2019-05-22T21:51:45.198Z,7.63
2019-05-22T21:54:16.471Z,8.07
2019-05-22T21:56:50.473Z,7.53
2019-05-22T21:59:21.749Z,8.03
2019-05-22T22:01:54.673Z,9.27
2019-05-22T22:04:30.923Z,9.30
2019-05-22T22:07:02.083Z,9.67
2019-05-22T22:09:32.965Z,9.63
2019-05-22T22:12:04.912Z,9.63
2019-05-22T22:14:37.195Z,9.47
2019-05-22T22:17:10.232Z,9.90
2019-05-22T22:19:41.248Z,10.33
2019-05-22T22:22:16.334Z,10.37
2019-05-22T22:24:48.058Z,10.43
2019-05-22T22:27:20.058Z,10.90
2019-05-22T22:29:53.628Z,9.93
2019-05-22T22:32:26.406Z,10.33
2019-05-22T22:34:59.070Z,10.13
2019-05-22T22:37:31.582Z,10.03
2019-05-22T22:40:05.848Z,9.73
2019-05-22T22:42:38.116Z,9.57
2019-05-22T22:45:13.193Z,9.90
2019-05-22T22:47:47.874Z,9.90
2019-05-22T22:50:18.795Z,10.00
2019-05-22T22:52:49.509Z,9.57
2019-05-22T22:55:22.178Z,10.17
2019-05-22T22:57:53.351Z,10.07
2019-05-22T23:00:27.691Z,10.67
2019-05-22T23:03:00.027Z,11.10
2019-05-22T23:05:33.145Z,11.27
2019-05-22T23:08:05.663Z,10.27
2019-05-22T23:10:36.499Z,10.50
2019-05-22T23:13:07.430Z,10.53
2019-05-22T23:15:42.453Z,10.37
2019-05-22T23:18:19.809Z,10.90
2019-05-22T23:20:49.687Z,11.13
2019-05-22T23:23:22.957Z,12.30
2019-05-22T23:25:54.625Z,12.27
2019-05-22T23:28:34.582Z,13.07
2019-05-22T23:30:59.921Z,12.23
2019-05-22T23:33:31.460Z,13.63
2019-05-22T23:36:02.842Z,13.30
2019-05-22T23:38:39.316Z,13.40
2019-05-22T23:41:10.456Z,12.97
2019-05-22T23:43:42.632Z,12.90
2019-05-22T23:46:14.941Z,12.87
2019-05-22T23:48:46.438Z,13.50
2019-05-22T23:51:18.771Z,13.10
2019-05-22T23:53:51.181Z,14.20
2019-05-22T23:56:22.523Z,12.83
2019-05-22T23:58:54.965Z,12.80
